Terminal Aerodrome Forecast
Issued by NWS Knoxville/Tri Cities, TN

Home | Current Version | Previous Version | Text Only | Print | Product List | Glossary On
Versions: 1 2 3 4 5 6 7 8 9 10 11 12 13 14 15 16 17 18 19 20 21 22 23 24 25 26 27 28 29 30 31 32 33 34 35 36 37 38 39 40 41 42 43 44 45
000
FTUS44 KMRX 010535
TAFTYS
TAF
KTYS 010535Z 0106/0206 23006KT P6SM VCTS SCT040CB BKN120
     FM010900 23004KT 6SM BR FEW015 SCT025
     FM011300 23009KT P6SM SCT040 BKN150
     FM011800 24010KT P6SM VCTS SCT045CB BKN100
     FM012100 24012KT P6SM VCTS SCT050CB BKN080
     FM020300 25006KT P6SM VCSH SCT040 BKN120=

USA.gov is the U.S. government's official web portal to all federal, state and local government web resources and services.